Time;durP1;ratioP1;P1;durP2;ratioP2;P2;SDS_P1;SDS_P2;PMS_P1;PMS_P2;Temp;Humidity;BMP_temperature;BMP_pressure;BME280_temperature;BME280_humidity;BME280_pressure;Samples;Min_cycle;Max_cycle;Signal;HPM_P1;HPM_P2
2022/12/13 00:03:33;;;;;;;14.40;11.90;;;;;;;-8.75;100.00;98016.41;15269599;19;20078;-51
2022/12/13 00:08:59;;;;;;;14.35;11.20;;;;;;;-8.82;100.00;98015.75;15261679;19;20022;-51
2022/12/13 00:14:27;;;;;;;14.45;11.13;;;;;;;-8.86;100.00;98011.53;15267351;19;20637;-50
2022/12/13 00:19:52;;;;;;;13.65;10.95;;;;;;;-8.90;100.00;97995.13;15269259;19;20021;-51
2022/12/13 00:25:19;;;;;;;14.93;11.68;;;;;;;-8.91;100.00;97997.78;15268408;19;20029;-49
2022/12/13 00:30:47;;;;;;;14.98;10.98;;;;;;;-8.93;100.00;98002.19;15264048;19;20029;-50
2022/12/13 00:36:13;;;;;;;15.40;11.10;;;;;;;-8.98;100.00;98000.59;15267614;19;20021;-55
2022/12/13 00:41:38;;;;;;;12.93;10.48;;;;;;;-9.03;100.00;98005.13;15262001;19;20026;-51
2022/12/13 00:47:05;;;;;;;14.73;10.90;;;;;;;-9.06;100.00;98001.75;15267529;19;20021;-49
2022/12/13 00:52:36;;;;;;;13.88;10.50;;;;;;;-9.10;100.00;98002.75;15265684;19;20022;-58
2022/12/13 00:58:00;;;;;;;12.95;10.48;;;;;;;-9.15;100.00;97997.69;15280737;19;20030;-57
2022/12/13 01:03:28;;;;;;;14.40;10.57;;;;;;;-9.16;100.00;97995.97;15273470;19;20019;-57
2022/12/13 01:08:52;;;;;;;13.47;10.20;;;;;;;-9.20;100.00;97987.41;15280081;19;20074;-54
2022/12/13 01:14:17;;;;;;;13.50;10.50;;;;;;;-9.25;100.00;97981.47;15275434;19;20014;-57
2022/12/13 01:19:44;;;;;;;14.17;10.20;;;;;;;-9.26;100.00;97981.53;15274900;19;20025;-55
2022/12/13 01:25:09;;;;;;;13.30;9.93;;;;;;;-9.30;100.00;97976.41;15280701;19;20014;-55
2022/12/13 01:30:33;;;;;;;12.43;9.80;;;;;;;-9.33;100.00;97970.44;15278476;19;20570;-58
2022/12/13 01:36:02;;;;;;;13.00;9.52;;;;;;;-9.36;100.00;97968.78;15272626;19;20045;-57
2022/12/13 01:41:26;;;;;;;13.37;10.03;;;;;;;-9.42;100.00;97958.53;15277929;19;20018;-58
2022/12/13 01:46:51;;;;;;;12.87;10.23;;;;;;;-9.43;100.00;97966.41;15272149;19;20013;-57
2022/12/13 01:52:25;;;;;;;12.20;9.27;;;;;;;-9.46;100.00;97962.13;15275069;19;20029;-56
2022/12/13 01:57:52;;;;;;;12.77;9.83;;;;;;;-9.50;100.00;97963.13;15278054;19;20018;-57
2022/12/13 02:03:18;;;;;;;12.33;9.70;;;;;;;-9.53;100.00;97960.63;15273530;19;20019;-57
2022/12/13 02:08:46;;;;;;;13.63;10.70;;;;;;;-9.54;100.00;97966.72;15271969;19;20018;-56
2022/12/13 02:14:11;;;;;;;12.80;9.93;;;;;;;-9.58;100.00;97957.31;15277177;19;20031;-57
2022/12/13 02:20:02;;;;;;;12.90;9.90;;;;;;;-9.60;100.00;97959.94;15271806;19;20471;-58
2022/12/13 02:25:53;;;;;;;12.20;9.40;;;;;;;-9.64;100.00;97966.19;15276190;19;20011;-57
2022/12/13 02:31:29;;;;;;;13.33;9.77;;;;;;;-9.77;100.00;97963.94;15274681;19;20018;-56
2022/12/13 02:37:04;;;;;;;12.20;9.30;;;;;;;-9.77;100.00;97953.53;15270321;19;20035;-57
2022/12/13 02:42:39;;;;;;;;;;;;;;;-9.82;100.00;97954.56;15271958;19;20022;-58
2022/12/13 02:48:10;;;;;;;12.50;9.50;;;;;;;-9.85;100.00;97950.28;15265635;19;19922;-56
2022/12/13 02:53:45;;;;;;;13.87;10.40;;;;;;;-9.86;100.00;97952.94;15270415;19;20378;-58
2022/12/13 02:59:15;;;;;;;13.30;9.77;;;;;;;-9.89;100.00;97953.00;15272636;19;20094;-57
2022/12/13 03:10:45;;;;;;;13.73;10.20;;;;;;;-9.92;100.00;97953.97;15267325;19;20019;-56
2022/12/13 03:16:16;;;;;;;12.57;10.10;;;;;;;-9.96;100.00;97949.75;15270936;19;20028;-54
2022/12/13 03:21:46;;;;;;;12.70;9.57;;;;;;;-10.01;100.00;97941.22;15264936;19;20247;-56
2022/12/13 03:27:12;;;;;;;12.33;9.60;;;;;;;-10.03;100.00;97936.03;15271914;19;20412;-58
2022/12/13 03:32:37;;;;;;;11.80;9.47;;;;;;;-10.04;100.00;97939.53;15269865;19;20018;-56
2022/12/13 03:38:05;;;;;;;13.47;9.70;;;;;;;-10.08;100.00;97932.72;15271181;19;20038;-58
2022/12/13 03:43:40;;;;;;;13.33;9.73;;;;;;;-10.10;100.00;97937.13;15261469;19;20485;-58
2022/12/13 03:49:05;;;;;;;14.10;9.77;;;;;;;-10.14;100.00;97938.09;15272032;19;20014;-57
2022/12/13 03:54:44;;;;;;;12.33;9.63;;;;;;;-10.16;100.00;97935.56;15264047;19;20014;-57
2022/12/13 04:00:10;;;;;;;12.47;9.77;;;;;;;-10.19;100.00;97942.63;15265434;19;20021;-59
2022/12/13 04:05:35;;;;;;;12.03;9.10;;;;;;;-10.22;100.00;97936.59;15267045;19;20494;-55
2022/12/13 04:13:31;;;;;;;12.13;9.40;;;;;;;-10.25;100.00;97931.47;15272592;19;20074;-56
2022/12/13 04:16:48;;;;;;;12.73;9.03;;;;;;;-10.28;100.00;97928.94;15262197;19;20357;-57
2022/12/13 04:22:12;;;;;;;12.60;9.00;;;;;;;-10.32;100.00;97924.72;15266823;19;20019;-57
2022/12/13 04:27:44;;;;;;;11.03;9.30;;;;;;;-10.37;100.00;97917.06;15277742;19;20025;-58
2022/12/13 04:33:08;;;;;;;13.00;9.50;;;;;;;-10.38;100.00;97909.31;15281277;19;20055;-54
2022/12/13 04:38:33;;;;;;;13.27;9.73;;;;;;;-10.38;100.00;97914.50;15282803;19;20019;-57
2022/12/13 04:44:00;;;;;;;14.07;9.70;;;;;;;-10.40;100.00;97917.16;15279875;19;20027;-59
2022/12/13 04:49:45;;;;;;;12.90;9.17;;;;;;;-10.41;100.00;97920.66;15274235;19;20010;-57
2022/12/13 04:55:10;;;;;;;13.33;9.57;;;;;;;-10.42;100.00;97923.31;15281934;19;20051;-57
2022/12/13 05:00:38;;;;;;;14.00;9.63;;;;;;;-10.46;100.00;97912.13;15278813;19;20014;-56
2022/12/13 05:06:07;;;;;;;12.00;9.70;;;;;;;-10.47;100.00;97912.16;15276935;19;20013;-58
2022/12/13 05:11:44;;;;;;;11.93;8.90;;;;;;;-10.50;100.00;97920.94;15285342;19;20023;-56
2022/12/13 05:17:11;;;;;;;13.87;9.23;;;;;;;-10.52;100.00;97917.50;15274804;19;20010;-58
2022/12/13 05:22:37;;;;;;;13.03;10.00;;;;;;;-10.55;100.00;97905.44;15274361;19;20040;-58
2022/12/13 05:28:02;;;;;;;14.43;9.53;;;;;;;-10.56;100.00;97916.75;15275188;19;20086;-58
2022/12/13 05:33:48;;;;;;;16.50;10.33;;;;;;;-10.57;100.00;97914.16;15286824;19;20025;-53
2022/12/13 05:39:18;;;;;;;13.23;9.70;;;;;;;-10.61;100.00;97923.81;15284109;19;20014;-58
2022/12/13 05:44:47;;;;;;;13.93;9.60;;;;;;;-10.62;100.00;97921.28;15281258;19;20321;-57
2022/12/13 05:50:16;;;;;;;12.87;9.93;;;;;;;-10.63;100.00;97919.56;15276257;19;20014;-56
2022/12/13 05:55:42;;;;;;;14.63;10.13;;;;;;;-10.63;100.00;97919.56;15286273;19;20101;-58
2022/12/13 06:01:09;;;;;;;15.77;9.93;;;;;;;-10.64;100.00;97921.28;15275180;19;20029;-58
2022/12/13 06:06:37;;;;;;;13.87;10.03;;;;;;;-10.66;100.00;97917.91;15284458;19;20367;-58
2022/12/13 06:12:01;;;;;;;13.40;9.60;;;;;;;-10.66;100.00;97911.84;15283035;19;20018;-56
2022/12/13 06:17:46;;;;;;;12.67;9.33;;;;;;;-10.68;100.00;97924.91;15277913;19;20021;-56
2022/12/13 06:23:13;;;;;;;13.03;9.20;;;;;;;-10.71;100.00;97920.63;15276075;19;20031;-57
2022/12/13 06:28:38;;;;;;;13.27;10.00;;;;;;;-10.72;100.00;97925.88;15279539;19;20078;-57
2022/12/13 06:34:03;;;;;;;12.63;9.50;;;;;;;-10.73;100.00;97925.03;15273992;19;20014;-54
2022/12/13 06:39:35;;;;;;;13.40;9.57;;;;;;;-10.75;100.00;97926.81;15276365;19;20014;-57
2022/12/13 06:45:00;;;;;;;13.83;9.17;;;;;;;-10.76;100.00;97932.06;15277328;19;20017;-57
2022/12/13 06:50:24;;;;;;;14.30;10.13;;;;;;;-10.78;100.00;97936.47;15267898;19;20043;-52
2022/12/13 06:55:51;;;;;;;14.33;9.47;;;;;;;-10.77;100.00;97948.56;15272880;19;20025;-53
2022/12/13 07:01:19;;;;;;;13.97;10.30;;;;;;;-10.77;100.00;97957.22;15279049;19;20029;-53
2022/12/13 07:06:43;;;;;;;15.83;9.57;;;;;;;-10.79;100.00;97953.81;15272500;19;20028;-52
2022/12/13 07:12:11;;;;;;;13.00;9.73;;;;;;;-10.80;100.00;97948.66;15278390;19;20024;-52
2022/12/13 07:17:35;;;;;;;13.60;10.30;;;;;;;-10.82;100.00;97945.22;15279521;19;20051;-50
2022/12/13 07:23:00;;;;;;;13.97;10.53;;;;;;;-10.84;100.00;97948.72;15277703;19;20632;-51
2022/12/13 07:28:28;;;;;;;15.00;10.17;;;;;;;-10.83;100.00;97944.38;15273441;19;20031;-50
2022/12/13 07:33:53;;;;;;;15.77;10.27;;;;;;;-10.82;100.00;97955.63;15275391;19;20015;-53
2022/12/13 07:39:18;;;;;;;14.07;9.73;;;;;;;-10.80;100.00;97964.25;15268683;19;20010;-51
2022/12/13 07:44:45;;;;;;;15.00;9.97;;;;;;;-10.79;100.00;97963.38;15273374;19;20029;-50
2022/12/13 07:50:10;;;;;;;13.13;9.90;;;;;;;-10.75;100.00;97957.16;15273871;19;20046;-52
2022/12/13 07:55:43;;;;;;;11.17;9.17;;;;;;;-10.72;100.00;97951.91;15278420;19;20102;-47
2022/12/13 08:01:11;;;;;;;14.83;9.53;;;;;;;-10.64;100.00;97954.28;15282615;19;20058;-50
2022/12/13 08:06:36;;;;;;;13.90;10.13;;;;;;;-10.58;100.00;97960.19;15289045;19;20727;-50
2022/12/13 08:12:02;;;;;;;13.03;9.87;;;;;;;-10.50;100.00;97961.72;15282448;19;20710;-47
2022/12/13 08:17:29;;;;;;;12.67;10.10;;;;;;;-10.41;100.00;97967.53;15294579;19;20025;-48
2022/12/13 08:22:56;;;;;;;13.37;9.43;;;;;;;-10.34;100.00;97960.38;15289063;19;20082;-47
2022/12/13 08:28:21;;;;;;;12.90;9.57;;;;;;;-10.26;100.00;97966.22;15291883;19;20010;-46
2022/12/13 08:33:48;;;;;;;17.50;10.47;;;;;;;-10.16;100.00;97965.94;15283290;19;20021;-48
2022/12/13 08:39:13;;;;;;;12.83;8.97;;;;;;;-10.08;100.00;97977.88;15287705;19;20026;-46
2022/12/13 08:44:37;;;;;;;13.00;9.40;;;;;;;-9.99;100.00;97979.34;15278562;19;20023;-49
2022/12/13 08:50:06;;;;;;;13.63;10.00;;;;;;;-9.82;100.00;97976.25;15287349;19;20023;-49
2022/12/13 08:55:30;;;;;;;12.87;9.53;;;;;;;-9.68;100.00;97968.00;15288561;19;20032;-49
2022/12/13 09:00:55;;;;;;;13.40;10.10;;;;;;;-9.55;100.00;97970.22;15285487;19;20014;-46
2022/12/13 09:06:22;;;;;;;11.83;9.77;;;;;;;-9.41;100.00;97972.44;15278401;19;20125;-47
2022/12/13 09:11:48;;;;;;;13.30;9.73;;;;;;;-9.30;100.00;97979.00;15280437;19;20025;-48
2022/12/13 09:17:16;;;;;;;12.13;9.43;;;;;;;-9.18;100.00;97969.06;15276219;19;20021;-47
2022/12/13 09:22:45;;;;;;;11.17;9.27;;;;;;;-9.08;100.00;97960.03;15281485;19;20024;-48
2022/12/13 09:28:19;;;;;;;11.90;9.53;;;;;;;-8.93;100.00;97960.44;15281501;19;20021;-49
2022/12/13 09:33:45;;;;;;;14.20;9.50;;;;;;;-8.79;100.00;97958.22;15283063;19;20017;-48
2022/12/13 09:39:13;;;;;;;13.37;9.63;;;;;;;-8.48;100.00;97962.38;15280923;19;20014;-51
2022/12/13 09:44:42;;;;;;;10.13;8.95;;;;;;;-8.28;100.00;97958.16;15290097;19;20404;-55
2022/12/13 09:50:27;;;;;;;11.38;8.75;;;;;;;-8.15;100.00;97948.94;15302454;19;20029;-49
2022/12/13 09:56:00;;;;;;;11.10;9.30;;;;;;;-8.02;100.00;97951.97;15311367;19;20018;-55
2022/12/13 10:01:28;;;;;;;12.02;9.15;;;;;;;-7.87;100.00;97958.38;15294077;19;20039;-51
2022/12/13 10:06:53;;;;;;;11.77;9.05;;;;;;;-7.79;100.00;97945.88;15274979;19;20066;-48
2022/12/13 10:12:23;;;;;;;11.77;9.30;;;;;;;-7.67;100.00;97938.44;15280267;19;20027;-47
2022/12/13 10:17:49;;;;;;;11.95;9.32;;;;;;;-7.55;100.00;97930.13;15280363;19;20021;-49
2022/12/13 10:23:13;;;;;;;10.95;9.30;;;;;;;-7.42;100.00;97933.13;15287571;19;20018;-45
2022/12/13 10:29:11;;;;;;;12.10;9.40;;;;;;;-7.28;100.00;97933.41;15288788;19;20470;-47
2022/12/13 10:34:38;;;;;;;9.88;8.55;;;;;;;-7.22;100.00;97919.22;15289838;19;20034;-46
2022/12/13 10:40:04;;;;;;;11.30;9.30;;;;;;;-7.10;100.00;97915.25;15285379;19;20024;-47
2022/12/13 10:45:32;;;;;;;11.07;9.00;;;;;;;-7.01;100.00;97914.03;15284956;19;20085;-46
2022/12/13 10:51:09;;;;;;;11.70;9.65;;;;;;;-6.92;100.00;97912.75;15278008;19;20883;-47
2022/12/13 10:56:37;;;;;;;11.07;9.25;;;;;;;-6.75;100.00;97912.03;15284087;19;20020;-46
2022/12/13 11:02:05;;;;;;;11.25;9.82;;;;;;;-6.69;100.00;97902.16;15284840;19;20043;-46
2022/12/13 11:07:32;;;;;;;10.50;8.00;;;;;;;-6.56;100.00;97892.00;15280699;19;20015;-46
2022/12/13 11:12:59;;;;;;;9.63;7.57;;;;;;;-6.46;100.00;97904.69;15278685;19;20025;-49
2022/12/13 11:18:28;;;;;;;8.57;7.28;;;;;;;-6.37;100.00;97896.41;15285088;19;20024;-47
2022/12/13 11:23:54;;;;;;;8.65;7.55;;;;;;;-6.32;100.00;97883.09;15275756;19;20458;-46
2022/12/13 11:29:50;;;;;;;12.20;9.25;;;;;;;-6.18;100.00;97887.75;15283002;19;20022;-46
2022/12/13 11:35:24;;;;;;;10.85;8.57;;;;;;;-6.11;100.00;97883.91;15282139;19;20494;-48
2022/12/13 11:40:55;;;;;;;9.50;8.50;;;;;;;-6.00;100.00;97881.63;15282440;19;20030;-47
2022/12/13 11:46:27;;;;;;;9.60;8.40;;;;;;;-5.93;100.00;97882.16;15276566;19;20028;-47
2022/12/13 11:52:03;;;;;;;10.90;9.10;;;;;;;-5.83;100.00;97872.09;15278993;19;20006;-47
2022/12/13 11:57:40;;;;;;;10.82;9.27;;;;;;;-5.73;100.00;97868.13;15274733;19;20427;-46
2022/12/13 12:03:33;;;;;;;9.93;8.85;;;;;;;-5.61;100.00;97851.78;15277909;19;20019;-45
2022/12/13 12:09:05;;;;;;;11.07;9.23;;;;;;;-5.50;100.00;97850.41;15278933;19;20021;-45
2022/12/13 12:14:40;;;;;;;10.15;8.20;;;;;;;-5.45;100.00;97854.50;15283820;19;20070;-45
2022/12/13 12:20:08;;;;;;;9.10;8.20;;;;;;;-5.39;100.00;97847.25;15276116;19;20019;-47
2022/12/13 12:25:49;;;;;;;9.65;8.25;;;;;;;-5.30;100.00;97850.25;15280858;19;20352;-48
2022/12/13 12:31:24;;;;;;;8.82;7.90;;;;;;;-5.16;100.00;97846.09;15279092;19;20077;-47
2022/12/13 12:37:03;;;;;;;9.73;8.50;;;;;;;-4.98;100.00;97836.44;15279893;19;20094;-45
2022/12/13 12:42:48;;;;;;;10.35;8.50;;;;;;;-4.86;100.00;97834.94;15279404;19;20300;-48
2022/12/13 12:49:03;;;;;;;9.27;8.05;;;;;;;-4.79;100.00;97825.84;15293690;19;20014;-44
2022/12/13 12:54:50;;;;;;;11.40;8.98;;;;;;;-4.32;100.00;97818.97;15285510;19;20018;-51
2022/12/13 13:00:20;;;;;;;9.23;8.23;;;;;;;-4.15;100.00;97818.03;15284311;19;20014;-50
2022/12/13 13:05:51;;;;;;;10.48;8.88;;;;;;;-3.80;100.00;97820.50;15289082;19;20047;-50
2022/12/13 13:11:20;;;;;;;203.65;60.42;;;;;;;-3.28;100.00;97823.72;15293502;19;20022;-51
2022/12/13 13:16:49;;;;;;;26.80;13.85;;;;;;;-2.87;100.00;97817.78;15288028;19;20018;-53
2022/12/13 13:22:39;;;;;;;9.23;7.95;;;;;;;-2.59;100.00;97808.22;15288566;19;20015;-54
2022/12/13 13:28:26;;;;;;;10.35;8.23;;;;;;;-2.30;100.00;97812.63;15285290;19;20015;-53
2022/12/13 13:33:56;;;;;;;9.93;8.33;;;;;;;-2.23;100.00;97808.66;15282454;19;20036;-52
2022/12/13 13:39:24;;;;;;;11.20;8.90;;;;;;;-1.95;100.00;97797.22;15288490;19;20043;-53
2022/12/13 13:45:19;;;;;;;11.00;8.15;;;;;;;-1.64;100.00;97804.94;15287550;19;20011;-54
2022/12/13 13:51:16;;;;;;;8.15;7.30;;;;;;;-1.68;100.00;97804.28;15289681;19;20033;-56
2022/12/13 13:57:09;;;;;;;8.43;7.53;;;;;;;-1.59;100.00;97808.97;15278558;19;20021;-56
2022/12/13 14:03:11;;;;;;;8.10;6.88;;;;;;;-1.35;100.00;97810.94;15287773;19;20019;-52
2022/12/13 14:09:15;;;;;;;7.95;7.15;;;;;;;-1.26;100.00;97810.34;15281380;19;20014;-51
2022/12/13 14:15:10;;;;;;;7.60;6.90;;;;;;;-1.43;100.00;97814.13;15281633;19;20010;-52
2022/12/13 14:20:54;;;;;;;7.38;6.68;;;;;;;-1.65;100.00;97803.25;15282471;19;20015;-52
2022/12/13 14:26:33;;;;;;;7.85;7.00;;;;;;;-1.90;100.00;97804.84;15278273;19;20027;-54
2022/12/13 14:31:58;;;;;;;8.27;6.82;;;;;;;-2.23;100.00;97808.66;15287975;19;20018;-55
2022/12/13 14:37:33;;;;;;;8.35;7.30;;;;;;;-2.58;100.00;97809.03;15275725;19;20018;-52
2022/12/13 14:43:01;;;;;;;7.90;7.07;;;;;;;-2.89;100.00;97806.50;15286817;19;20018;-53
2022/12/13 14:48:44;;;;;;;9.65;7.70;;;;;;;-3.16;100.00;97825.66;15279960;19;20010;-50
2022/12/13 14:54:09;;;;;;;8.25;7.28;;;;;;;-3.42;100.00;97827.16;15282082;19;20014;-49
2022/12/13 14:59:54;;;;;;;8.93;7.72;;;;;;;-3.63;100.00;97816.06;15276756;19;20018;-51
2022/12/13 15:05:26;;;;;;;9.95;8.95;;;;;;;-3.92;100.00;97821.19;15281686;19;20018;-51
2022/12/13 15:10:54;;;;;;;9.88;8.88;;;;;;;-4.31;100.00;97806.69;15274071;19;20062;-52
2022/12/13 15:16:31;;;;;;;13.48;9.98;;;;;;;-4.72;100.00;97803.53;15279608;19;20022;-52
2022/12/13 15:22:04;;;;;;;9.95;8.30;;;;;;;-4.86;100.00;97800.78;15282886;19;20045;-48
2022/12/13 15:27:35;;;;;;;9.27;8.15;;;;;;;-4.97;100.00;97807.44;15276730;19;20328;-52
2022/12/13 15:33:16;;;;;;;10.57;9.33;;;;;;;-5.11;100.00;97802.91;15278335;19;20022;-53
2022/12/13 15:39:00;;;;;;;10.98;9.57;;;;;;;-5.31;100.00;97806.56;15281376;19;20031;-50
2022/12/13 15:44:35;;;;;;;11.75;9.90;;;;;;;-5.49;100.00;97805.69;15280280;19;20035;-50
2022/12/13 15:50:08;;;;;;;12.48;9.75;;;;;;;-5.65;100.00;97808.22;15279227;19;20479;-53
2022/12/13 15:55:40;;;;;;;12.23;9.20;;;;;;;-5.72;100.00;97801.59;15280059;19;20332;-51
2022/12/13 16:01:05;;;;;;;11.48;9.35;;;;;;;-5.82;100.00;97798.56;15280044;19;20472;-54
2022/12/13 16:06:34;;;;;;;10.55;8.13;;;;;;;-5.96;100.00;97791.38;15273329;19;20422;-52
2022/12/13 16:12:01;;;;;;;9.77;7.85;;;;;;;-6.02;100.00;97789.06;15271623;19;20018;-49
2022/12/13 16:17:32;;;;;;;10.75;7.53;;;;;;;-6.08;100.00;97787.59;15265519;19;20030;-49
2022/12/13 16:22:59;;;;;;;10.45;7.38;;;;;;;-6.12;100.00;97785.19;15295567;19;20031;-49
2022/12/13 16:28:27;;;;;;;11.85;8.43;;;;;;;-6.14;100.00;97782.66;15289156;19;20018;-48
2022/12/13 16:33:52;;;;;;;9.82;7.80;;;;;;;-6.20;100.00;97794.28;15294791;19;20049;-48
2022/12/13 16:39:21;;;;;;;10.00;8.10;;;;;;;-6.28;100.00;97792.94;15284296;19;20352;-49
2022/12/13 16:44:46;;;;;;;9.55;8.05;;;;;;;-6.33;100.00;97790.53;15286024;19;20026;-49
2022/12/13 16:50:24;;;;;;;10.25;8.77;;;;;;;-6.39;100.00;97788.16;15293755;19;20088;-50
2022/12/13 16:55:59;;;;;;;11.60;8.90;;;;;;;-6.44;100.00;97779.69;15289970;19;20050;-49
2022/12/13 17:01:24;;;;;;;12.18;8.73;;;;;;;-6.52;100.00;97788.72;15290652;19;20046;-51
2022/12/13 17:06:49;;;;;;;11.48;8.95;;;;;;;-6.59;100.00;97776.84;15286383;19;20017;-52
2022/12/13 17:12:16;;;;;;;11.93;9.73;;;;;;;-6.62;100.00;97776.13;15287439;19;20086;-52
2022/12/13 17:17:41;;;;;;;12.18;9.88;;;;;;;-6.68;100.00;97782.50;15280017;19;20010;-54
2022/12/13 17:23:06;;;;;;;12.20;9.80;;;;;;;-6.69;100.00;97791.28;15293271;19;20018;-49
2022/12/13 17:28:39;;;;;;;12.90;9.65;;;;;;;-6.68;100.00;97787.75;15278158;19;20010;-49
2022/12/13 17:34:04;;;;;;;14.13;9.52;;;;;;;-6.69;100.00;97786.88;15288251;19;20010;-48
2022/12/13 17:39:28;;;;;;;10.07;8.52;;;;;;;-6.69;100.00;97784.25;15287153;19;20084;-52
2022/12/13 17:44:55;;;;;;;11.20;8.68;;;;;;;-6.71;100.00;97785.25;15285565;19;20011;-50
2022/12/13 17:50:21;;;;;;;11.13;9.05;;;;;;;-6.75;100.00;97774.09;15282059;19;20051;-49
2022/12/13 17:55:52;;;;;;;10.93;8.75;;;;;;;-6.82;100.00;97764.81;15283669;19;20026;-54
2022/12/13 18:01:22;;;;;;;11.60;9.60;;;;;;;-6.85;100.00;97757.91;15283277;19;20022;-51
2022/12/13 18:06:47;;;;;;;11.70;9.18;;;;;;;-6.87;100.00;97751.06;15282069;19;20371;-51
2022/12/13 18:12:18;;;;;;;12.63;9.80;;;;;;;-6.86;100.00;97750.97;15282101;19;20052;-50
2022/12/13 18:17:45;;;;;;;11.55;9.10;;;;;;;-6.84;100.00;97754.38;15283231;19;20360;-48
2022/12/13 18:23:31;;;;;;;11.30;8.70;;;;;;;-6.81;100.00;97758.63;15280067;19;20509;-53
2022/12/13 18:28:58;;;;;;;11.52;8.88;;;;;;;-6.82;100.00;97747.31;15287613;19;20018;-48
2022/12/13 18:34:27;;;;;;;11.18;9.25;;;;;;;-6.87;100.00;97749.28;15285863;19;20025;-53
2022/12/13 18:39:53;;;;;;;12.13;8.70;;;;;;;-6.94;100.00;97745.25;15287329;19;20014;-51
2022/12/13 18:45:18;;;;;;;11.00;9.23;;;;;;;-6.97;100.00;97745.38;15277253;19;20023;-48
2022/12/13 18:50:46;;;;;;;9.77;8.05;;;;;;;-6.99;100.00;97752.44;15287967;19;20003;-48
2022/12/13 18:56:20;;;;;;;10.15;8.30;;;;;;;-7.01;100.00;97760.38;15276295;19;20015;-49
2022/12/13 19:01:45;;;;;;;10.95;9.02;;;;;;;-6.99;100.00;97762.91;15284044;19;20018;-53
2022/12/13 19:07:13;;;;;;;10.98;8.65;;;;;;;-7.01;100.00;97759.53;15281820;19;20524;-48
2022/12/13 19:12:39;;;;;;;11.60;8.20;;;;;;;-7.08;100.00;97747.63;15284253;19;20464;-49
2022/12/13 19:18:03;;;;;;;10.13;8.52;;;;;;;-7.22;100.00;97743.84;15279672;19;20020;-52
2022/12/13 19:23:31;;;;;;;10.40;8.95;;;;;;;-7.20;100.00;97742.00;15282267;19;20011;-52
2022/12/13 19:28:57;;;;;;;11.40;8.32;;;;;;;-7.15;100.00;97747.91;15270958;19;20360;-50
2022/12/13 19:34:22;;;;;;;11.32;8.27;;;;;;;-7.10;100.00;97742.47;15284004;19;20033;-53
2022/12/13 19:39:49;;;;;;;10.45;8.68;;;;;;;-7.11;100.00;97735.53;15280556;19;20671;-51
2022/12/13 19:45:14;;;;;;;10.13;8.98;;;;;;;-7.09;100.00;97735.44;15280713;19;20086;-53
2022/12/13 19:50:43;;;;;;;11.57;8.77;;;;;;;-7.09;100.00;97730.22;15283329;19;20021;-49
2022/12/13 19:56:20;;;;;;;11.43;8.68;;;;;;;-7.11;100.00;97719.81;15279713;19;20010;-49
2022/12/13 20:01:46;;;;;;;11.68;8.82;;;;;;;-7.17;100.00;97720.06;15249064;19;20363;-50
2022/12/13 20:07:10;;;;;;;11.52;8.32;;;;;;;-7.22;100.00;97722.91;15277668;19;20011;-51
2022/12/13 20:12:38;;;;;;;11.02;8.90;;;;;;;-7.29;100.00;97719.72;15280510;19;20035;-52
2022/12/13 20:18:03;;;;;;;11.07;9.20;;;;;;;-7.31;100.00;97725.94;15274732;19;20021;-49
2022/12/13 20:23:28;;;;;;;12.30;9.43;;;;;;;-7.33;100.00;97712.06;15272801;19;20018;-49
2022/12/13 20:28:55;;;;;;;11.77;8.55;;;;;;;-7.32;100.00;97703.28;15277978;19;20357;-49
2022/12/13 20:34:21;;;;;;;9.80;8.23;;;;;;;-7.32;100.00;97695.44;15276814;19;20423;-49
2022/12/13 20:39:45;;;;;;;11.18;7.93;;;;;;;-7.28;100.00;97686.56;15278723;19;20014;-54
2022/12/13 20:45:13;;;;;;;10.02;8.10;;;;;;;-7.24;100.00;97688.13;15277964;19;20419;-49
2022/12/13 20:50:38;;;;;;;9.30;7.80;;;;;;;-7.21;100.00;97682.72;15272299;19;20417;-55
2022/12/13 20:56:13;;;;;;;9.55;7.78;;;;;;;-7.17;100.00;97681.69;15269559;19;20077;-53
2022/12/13 21:01:42;;;;;;;9.40;7.57;;;;;;;-7.11;100.00;97680.56;15272312;19;20044;-54
2022/12/13 21:07:06;;;;;;;9.70;7.38;;;;;;;-7.06;100.00;97680.34;15280293;19;20018;-50
2022/12/13 21:12:31;;;;;;;10.35;7.18;;;;;;;-7.00;100.00;97673.06;15293930;19;20029;-52
2022/12/13 21:17:58;;;;;;;9.38;7.18;;;;;;;-6.95;100.00;97667.59;15289308;19;20020;-49
2022/12/13 21:23:23;;;;;;;8.82;7.07;;;;;;;-6.90;100.00;97668.25;15290665;19;20014;-50
2022/12/13 21:28:48;;;;;;;8.43;7.43;;;;;;;-6.88;100.00;97669.00;15282270;19;20111;-55
2022/12/13 21:34:15;;;;;;;8.98;7.00;;;;;;;-6.87;100.00;97665.47;15286012;19;20069;-52
2022/12/13 21:39:42;;;;;;;9.32;7.07;;;;;;;-6.85;100.00;97663.63;15291056;19;20077;-52
2022/12/13 21:45:08;;;;;;;7.60;6.65;;;;;;;-6.83;100.00;97659.19;15289338;19;20348;-49
2022/12/13 21:50:36;;;;;;;7.55;6.25;;;;;;;-6.81;100.00;97659.09;15288299;19;20018;-51
2022/12/13 22:07:32;;;;;;;8.32;5.80;;;;;;;-6.65;100.00;97635.69;15278527;19;20018;-52
2022/12/13 22:12:58;;;;;;;5.95;4.82;;;;;;;-6.60;100.00;97628.44;15291499;19;20043;-52
2022/12/13 22:18:23;;;;;;;7.18;5.25;;;;;;;-6.59;100.00;97614.41;15027124;19;5011859;-54
2022/12/13 22:23:54;;;;;;;6.03;5.10;;;;;;;-6.56;100.00;97611.66;15287840;19;20384;-53
2022/12/13 22:29:20;;;;;;;5.63;4.55;;;;;;;-6.54;100.00;97611.56;15287155;19;20025;-54
2022/12/13 22:34:45;;;;;;;8.15;4.88;;;;;;;-6.54;100.00;97612.44;15281319;19;20025;-51
2022/12/13 22:40:13;;;;;;;6.03;4.82;;;;;;;-6.52;100.00;97605.31;15282213;19;20029;-49
2022/12/13 22:45:38;;;;;;;6.20;4.95;;;;;;;-6.51;100.00;97593.06;15287576;19;20025;-50
2022/12/13 22:51:02;;;;;;;7.68;4.63;;;;;;;-6.49;100.00;97588.63;15283870;19;20543;-53
2022/12/13 22:56:29;;;;;;;5.55;4.43;;;;;;;-6.45;100.00;97589.31;15284644;19;20334;-51
2022/12/13 23:01:56;;;;;;;5.00;4.20;;;;;;;-6.43;100.00;97582.22;15288185;19;20017;-54
2022/12/13 23:07:21;;;;;;;5.05;4.10;;;;;;;-6.39;100.00;97575.88;15282577;19;20705;-50
2022/12/13 23:18:26;;;;;;;4.45;3.85;;;;;;;-6.29;100.00;97561.38;15286000;19;20054;-49
2022/12/13 23:23:50;;;;;;;4.68;3.92;;;;;;;-6.22;100.00;97551.44;15284677;19;20074;-53
2022/12/13 23:29:17;;;;;;;4.85;4.25;;;;;;;-6.13;100.00;97544.88;15280432;19;20543;-49
2022/12/13 23:34:42;;;;;;;4.57;4.03;;;;;;;-6.09;100.00;97533.31;15282235;19;20010;-50
2022/12/13 23:40:08;;;;;;;4.45;4.05;;;;;;;-6.02;100.00;97532.06;15284728;19;20082;-50
2022/12/13 23:45:36;;;;;;;4.82;4.32;;;;;;;-6.01;100.00;97525.91;15274593;19;20022;-51
2022/12/13 23:51:01;;;;;;;5.15;4.63;;;;;;;-5.97;100.00;97522.16;15280905;19;20002;-49
2022/12/13 23:56:26;;;;;;;4.82;4.30;;;;;;;-5.96;100.00;97509.88;15282017;19;20014;-52
